sensor_id;sensor_type;location;lat;lon;timestamp;temperature;humidity
16437;DHT22;8328;52.206;21.006;2022-07-29T00:00:24;16.70;99.90
16437;DHT22;8328;52.206;21.006;2022-07-29T00:02:49;16.60;99.90
16437;DHT22;8328;52.206;21.006;2022-07-29T00:05:15;16.60;99.90
16437;DHT22;8328;52.206;21.006;2022-07-29T00:07:41;16.60;99.90
16437;DHT22;8328;52.206;21.006;2022-07-29T00:10:07;16.60;99.90
16437;DHT22;8328;52.206;21.006;2022-07-29T00:12:33;16.60;99.90
16437;DHT22;8328;52.206;21.006;2022-07-29T00:15:00;16.60;99.90
16437;DHT22;8328;52.206;21.006;2022-07-29T00:17:26;16.60;99.90
16437;DHT22;8328;52.206;21.006;2022-07-29T00:19:52;16.60;99.90
16437;DHT22;8328;52.206;21.006;2022-07-29T00:22:19;16.60;99.90
16437;DHT22;8328;52.206;21.006;2022-07-29T00:24:47;16.60;99.90
16437;DHT22;8328;52.206;21.006;2022-07-29T00:27:14;16.50;99.90
16437;DHT22;8328;52.206;21.006;2022-07-29T00:29:39;16.50;99.90
16437;DHT22;8328;52.206;21.006;2022-07-29T00:32:06;16.50;99.90
16437;DHT22;8328;52.206;21.006;2022-07-29T00:34:31;16.50;99.90
16437;DHT22;8328;52.206;21.006;2022-07-29T00:37:16;16.50;99.90
16437;DHT22;8328;52.206;21.006;2022-07-29T00:39:42;16.40;99.90
16437;DHT22;8328;52.206;21.006;2022-07-29T00:42:08;16.40;99.90
16437;DHT22;8328;52.206;21.006;2022-07-29T00:44:41;15.90;99.90
16437;DHT22;8328;52.206;21.006;2022-07-29T00:47:09;16.40;99.90
16437;DHT22;8328;52.206;21.006;2022-07-29T00:49:35;16.40;99.90
16437;DHT22;8328;52.206;21.006;2022-07-29T00:52:05;16.30;99.90
16437;DHT22;8328;52.206;21.006;2022-07-29T00:54:33;16.40;99.90
16437;DHT22;8328;52.206;21.006;2022-07-29T00:57:00;16.40;99.90
16437;DHT22;8328;52.206;21.006;2022-07-29T00:59:27;16.30;99.90
16437;DHT22;8328;52.206;21.006;2022-07-29T01:01:53;16.30;99.90
16437;DHT22;8328;52.206;21.006;2022-07-29T01:04:23;16.30;99.90
16437;DHT22;8328;52.206;21.006;2022-07-29T01:06:49;16.30;99.90
16437;DHT22;8328;52.206;21.006;2022-07-29T01:09:16;16.20;99.90
16437;DHT22;8328;52.206;21.006;2022-07-29T01:11:43;16.20;99.90
16437;DHT22;8328;52.206;21.006;2022-07-29T01:14:12;16.10;99.90
16437;DHT22;8328;52.206;21.006;2022-07-29T01:20:51;16.10;99.90
16437;DHT22;8328;52.206;21.006;2022-07-29T01:25:46;16.00;99.90
16437;DHT22;8328;52.206;21.006;2022-07-29T01:31:20;16.00;99.90
16437;DHT22;8328;52.206;21.006;2022-07-29T01:33:52;16.00;99.90
16437;DHT22;8328;52.206;21.006;2022-07-29T01:36:32;16.00;99.90
16437;DHT22;8328;52.206;21.006;2022-07-29T01:41:32;16.00;99.90
16437;DHT22;8328;52.206;21.006;2022-07-29T01:44:07;15.90;99.90
16437;DHT22;8328;52.206;21.006;2022-07-29T01:46:38;15.90;99.90
16437;DHT22;8328;52.206;21.006;2022-07-29T01:49:20;15.90;99.90
16437;DHT22;8328;52.206;21.006;2022-07-29T01:51:52;15.90;99.90
16437;DHT22;8328;52.206;21.006;2022-07-29T01:54:35;15.90;99.90
16437;DHT22;8328;52.206;21.006;2022-07-29T01:57:05;15.90;99.90
16437;DHT22;8328;52.206;21.006;2022-07-29T01:59:33;15.90;99.90
16437;DHT22;8328;52.206;21.006;2022-07-29T02:02:00;15.90;99.90
16437;DHT22;8328;52.206;21.006;2022-07-29T02:04:27;15.90;99.90
16437;DHT22;8328;52.206;21.006;2022-07-29T02:06:58;15.90;99.90
16437;DHT22;8328;52.206;21.006;2022-07-29T02:09:26;15.80;99.90
16437;DHT22;8328;52.206;21.006;2022-07-29T02:11:54;15.80;99.90
16437;DHT22;8328;52.206;21.006;2022-07-29T02:14:23;15.70;99.90
16437;DHT22;8328;52.206;21.006;2022-07-29T02:16:52;15.80;99.90
16437;DHT22;8328;52.206;21.006;2022-07-29T02:19:21;15.70;99.90
16437;DHT22;8328;52.206;21.006;2022-07-29T02:21:51;15.70;99.90
16437;DHT22;8328;52.206;21.006;2022-07-29T02:24:18;15.70;99.90
16437;DHT22;8328;52.206;21.006;2022-07-29T02:26:46;15.70;99.90
16437;DHT22;8328;52.206;21.006;2022-07-29T02:29:13;15.70;99.90
16437;DHT22;8328;52.206;21.006;2022-07-29T02:31:41;15.70;99.90
16437;DHT22;8328;52.206;21.006;2022-07-29T02:34:09;15.60;99.90
16437;DHT22;8328;52.206;21.006;2022-07-29T02:36:36;15.60;99.90
16437;DHT22;8328;52.206;21.006;2022-07-29T02:39:03;15.60;99.90
16437;DHT22;8328;52.206;21.006;2022-07-29T02:41:41;15.60;99.90
16437;DHT22;8328;52.206;21.006;2022-07-29T02:44:17;15.60;99.90
16437;DHT22;8328;52.206;21.006;2022-07-29T02:46:51;15.60;99.90
16437;DHT22;8328;52.206;21.006;2022-07-29T02:52:19;15.50;99.90
16437;DHT22;8328;52.206;21.006;2022-07-29T02:55:25;15.50;99.90
16437;DHT22;8328;52.206;21.006;2022-07-29T02:58:05;15.50;99.90
16437;DHT22;8328;52.206;21.006;2022-07-29T03:00:37;15.50;99.90
16437;DHT22;8328;52.206;21.006;2022-07-29T03:03:08;15.40;99.90
16437;DHT22;8328;52.206;21.006;2022-07-29T03:05:34;15.40;99.90
16437;DHT22;8328;52.206;21.006;2022-07-29T03:08:03;15.40;99.90
16437;DHT22;8328;52.206;21.006;2022-07-29T03:10:30;15.50;99.90
16437;DHT22;8328;52.206;21.006;2022-07-29T03:12:57;15.40;99.90
16437;DHT22;8328;52.206;21.006;2022-07-29T03:15:23;15.40;99.90
16437;DHT22;8328;52.206;21.006;2022-07-29T03:17:50;15.40;99.90
16437;DHT22;8328;52.206;21.006;2022-07-29T03:20:16;15.40;99.90
16437;DHT22;8328;52.206;21.006;2022-07-29T03:22:43;15.40;99.90
16437;DHT22;8328;52.206;21.006;2022-07-29T03:25:13;15.40;99.90
16437;DHT22;8328;52.206;21.006;2022-07-29T03:27:40;15.30;99.90
16437;DHT22;8328;52.206;21.006;2022-07-29T03:30:06;15.40;99.90
16437;DHT22;8328;52.206;21.006;2022-07-29T03:32:33;15.40;99.90
16437;DHT22;8328;52.206;21.006;2022-07-29T03:34:59;15.40;99.90
16437;DHT22;8328;52.206;21.006;2022-07-29T03:37:25;15.40;99.90
16437;DHT22;8328;52.206;21.006;2022-07-29T03:39:52;15.40;99.90
16437;DHT22;8328;52.206;21.006;2022-07-29T03:42:21;15.40;99.90
16437;DHT22;8328;52.206;21.006;2022-07-29T03:44:50;15.30;99.90
16437;DHT22;8328;52.206;21.006;2022-07-29T03:47:19;15.40;99.90
16437;DHT22;8328;52.206;21.006;2022-07-29T03:49:49;15.40;99.90
16437;DHT22;8328;52.206;21.006;2022-07-29T03:52:16;15.40;99.90
16437;DHT22;8328;52.206;21.006;2022-07-29T03:54:42;15.50;99.90
16437;DHT22;8328;52.206;21.006;2022-07-29T03:57:10;15.50;99.90
16437;DHT22;8328;52.206;21.006;2022-07-29T03:59:36;15.60;99.90
16437;DHT22;8328;52.206;21.006;2022-07-29T04:02:05;15.60;99.90
16437;DHT22;8328;52.206;21.006;2022-07-29T04:04:34;15.60;99.90
16437;DHT22;8328;52.206;21.006;2022-07-29T04:07:00;18.10;99.90
16437;DHT22;8328;52.206;21.006;2022-07-29T04:09:26;15.90;99.90
16437;DHT22;8328;52.206;21.006;2022-07-29T04:11:52;15.80;99.90
16437;DHT22;8328;52.206;21.006;2022-07-29T04:14:18;15.80;99.90
16437;DHT22;8328;52.206;21.006;2022-07-29T04:16:44;16.00;99.90
16437;DHT22;8328;52.206;21.006;2022-07-29T04:19:10;16.00;99.90
16437;DHT22;8328;52.206;21.006;2022-07-29T04:21:40;16.20;99.90
16437;DHT22;8328;52.206;21.006;2022-07-29T04:24:07;16.30;99.90
16437;DHT22;8328;52.206;21.006;2022-07-29T04:26:33;16.40;99.90
16437;DHT22;8328;52.206;21.006;2022-07-29T04:28:59;16.50;99.90
16437;DHT22;8328;52.206;21.006;2022-07-29T04:31:25;16.60;99.90
16437;DHT22;8328;52.206;21.006;2022-07-29T04:33:50;16.70;99.90
16437;DHT22;8328;52.206;21.006;2022-07-29T04:36:16;16.80;99.90
16437;DHT22;8328;52.206;21.006;2022-07-29T04:38:42;16.90;99.90
16437;DHT22;8328;52.206;21.006;2022-07-29T04:41:08;17.10;99.90
16437;DHT22;8328;52.206;21.006;2022-07-29T04:43:35;17.20;99.90
16437;DHT22;8328;52.206;21.006;2022-07-29T04:46:02;17.40;99.90
16437;DHT22;8328;52.206;21.006;2022-07-29T04:48:28;17.50;99.90
16437;DHT22;8328;52.206;21.006;2022-07-29T04:50:54;17.60;99.90
16437;DHT22;8328;52.206;21.006;2022-07-29T04:53:20;17.20;99.90
16437;DHT22;8328;52.206;21.006;2022-07-29T04:55:46;17.90;99.90
16437;DHT22;8328;52.206;21.006;2022-07-29T04:58:12;18.10;99.90
16437;DHT22;8328;52.206;21.006;2022-07-29T05:00:38;18.20;99.90
16437;DHT22;8328;52.206;21.006;2022-07-29T05:03:04;18.40;99.90
16437;DHT22;8328;52.206;21.006;2022-07-29T05:05:30;18.60;99.90
16437;DHT22;8328;52.206;21.006;2022-07-29T05:07:56;19.40;99.90
16437;DHT22;8328;52.206;21.006;2022-07-29T05:10:22;19.70;99.90
16437;DHT22;8328;52.206;21.006;2022-07-29T05:12:48;19.80;99.90
16437;DHT22;8328;52.206;21.006;2022-07-29T05:15:14;20.20;99.90
16437;DHT22;8328;52.206;21.006;2022-07-29T05:17:40;20.40;99.90
16437;DHT22;8328;52.206;21.006;2022-07-29T05:20:06;20.60;99.90
16437;DHT22;8328;52.206;21.006;2022-07-29T05:22:32;20.70;99.90
16437;DHT22;8328;52.206;21.006;2022-07-29T05:24:58;20.90;99.90
16437;DHT22;8328;52.206;21.006;2022-07-29T05:27:24;21.10;99.90
16437;DHT22;8328;52.206;21.006;2022-07-29T05:29:50;21.50;99.90
16437;DHT22;8328;52.206;21.006;2022-07-29T05:32:15;21.70;99.90
16437;DHT22;8328;52.206;21.006;2022-07-29T05:34:42;21.90;99.90
16437;DHT22;8328;52.206;21.006;2022-07-29T05:37:08;21.90;99.90
16437;DHT22;8328;52.206;21.006;2022-07-29T05:39:33;22.20;99.90
16437;DHT22;8328;52.206;21.006;2022-07-29T05:41:59;22.50;99.90
16437;DHT22;8328;52.206;21.006;2022-07-29T05:44:25;22.50;99.90
16437;DHT22;8328;52.206;21.006;2022-07-29T05:46:51;22.40;99.90
16437;DHT22;8328;52.206;21.006;2022-07-29T05:49:17;22.10;99.90
16437;DHT22;8328;52.206;21.006;2022-07-29T05:51:44;21.60;99.90
16437;DHT22;8328;52.206;21.006;2022-07-29T05:54:09;21.40;99.90
16437;DHT22;8328;52.206;21.006;2022-07-29T05:56:36;21.30;99.90
16437;DHT22;8328;52.206;21.006;2022-07-29T05:59:02;21.60;99.90
16437;DHT22;8328;52.206;21.006;2022-07-29T06:01:28;21.50;99.90
16437;DHT22;8328;52.206;21.006;2022-07-29T06:03:54;21.60;99.90
16437;DHT22;8328;52.206;21.006;2022-07-29T06:06:20;21.70;99.90
16437;DHT22;8328;52.206;21.006;2022-07-29T06:08:46;21.90;99.90
16437;DHT22;8328;52.206;21.006;2022-07-29T06:11:12;21.80;99.90
16437;DHT22;8328;52.206;21.006;2022-07-29T06:13:38;21.80;99.90
16437;DHT22;8328;52.206;21.006;2022-07-29T06:16:04;22.50;99.90
16437;DHT22;8328;52.206;21.006;2022-07-29T06:18:30;22.20;99.90
16437;DHT22;8328;52.206;21.006;2022-07-29T06:20:56;22.10;99.90
16437;DHT22;8328;52.206;21.006;2022-07-29T06:23:21;22.40;99.90
16437;DHT22;8328;52.206;21.006;2022-07-29T06:25:47;23.70;99.90
16437;DHT22;8328;52.206;21.006;2022-07-29T06:28:13;24.60;99.90
16437;DHT22;8328;52.206;21.006;2022-07-29T06:30:40;23.40;99.90
16437;DHT22;8328;52.206;21.006;2022-07-29T06:33:06;23.30;99.90
16437;DHT22;8328;52.206;21.006;2022-07-29T06:35:35;22.90;99.90
16437;DHT22;8328;52.206;21.006;2022-07-29T06:38:02;22.80;99.90
16437;DHT22;8328;52.206;21.006;2022-07-29T06:40:28;22.70;99.90
16437;DHT22;8328;52.206;21.006;2022-07-29T06:43:13;22.70;99.90
16437;DHT22;8328;52.206;21.006;2022-07-29T06:45:38;22.70;99.90
16437;DHT22;8328;52.206;21.006;2022-07-29T06:48:06;22.70;99.90
16437;DHT22;8328;52.206;21.006;2022-07-29T06:50:32;22.60;99.90
16437;DHT22;8328;52.206;21.006;2022-07-29T06:52:58;22.50;99.90
16437;DHT22;8328;52.206;21.006;2022-07-29T06:55:24;22.60;99.90
16437;DHT22;8328;52.206;21.006;2022-07-29T06:57:50;22.60;99.90
16437;DHT22;8328;52.206;21.006;2022-07-29T07:00:16;22.60;99.90
16437;DHT22;8328;52.206;21.006;2022-07-29T07:02:42;22.60;99.90
16437;DHT22;8328;52.206;21.006;2022-07-29T07:05:08;22.60;99.90
16437;DHT22;8328;52.206;21.006;2022-07-29T07:07:34;22.60;99.90
16437;DHT22;8328;52.206;21.006;2022-07-29T07:10:00;22.70;99.90
16437;DHT22;8328;52.206;21.006;2022-07-29T07:12:26;22.70;99.90
16437;DHT22;8328;52.206;21.006;2022-07-29T07:14:52;22.80;99.90
16437;DHT22;8328;52.206;21.006;2022-07-29T07:17:18;22.80;99.90
16437;DHT22;8328;52.206;21.006;2022-07-29T07:19:43;22.90;99.90
16437;DHT22;8328;52.206;21.006;2022-07-29T07:22:10;22.90;99.90
16437;DHT22;8328;52.206;21.006;2022-07-29T07:24:36;22.90;99.90
16437;DHT22;8328;52.206;21.006;2022-07-29T07:27:02;22.90;99.90
16437;DHT22;8328;52.206;21.006;2022-07-29T07:29:28;22.80;99.90
16437;DHT22;8328;52.206;21.006;2022-07-29T07:31:54;22.90;99.90
16437;DHT22;8328;52.206;21.006;2022-07-29T07:34:20;23.00;99.90
16437;DHT22;8328;52.206;21.006;2022-07-29T07:36:46;23.10;99.90
16437;DHT22;8328;52.206;21.006;2022-07-29T07:39:12;23.10;99.90
16437;DHT22;8328;52.206;21.006;2022-07-29T07:41:37;23.20;99.90
16437;DHT22;8328;52.206;21.006;2022-07-29T07:44:03;23.20;99.90
16437;DHT22;8328;52.206;21.006;2022-07-29T07:46:29;23.30;99.90
16437;DHT22;8328;52.206;21.006;2022-07-29T07:48:55;23.20;99.90
16437;DHT22;8328;52.206;21.006;2022-07-29T07:51:21;23.20;99.90
16437;DHT22;8328;52.206;21.006;2022-07-29T07:53:47;23.20;99.90
16437;DHT22;8328;52.206;21.006;2022-07-29T07:56:16;23.30;99.90
16437;DHT22;8328;52.206;21.006;2022-07-29T07:58:42;23.30;99.90
16437;DHT22;8328;52.206;21.006;2022-07-29T08:01:08;23.30;99.90
16437;DHT22;8328;52.206;21.006;2022-07-29T08:03:35;23.40;99.90
16437;DHT22;8328;52.206;21.006;2022-07-29T08:06:01;23.50;99.90
16437;DHT22;8328;52.206;21.006;2022-07-29T08:08:27;23.50;99.90
16437;DHT22;8328;52.206;21.006;2022-07-29T08:10:53;23.40;99.90
16437;DHT22;8328;52.206;21.006;2022-07-29T08:13:20;23.40;99.90
16437;DHT22;8328;52.206;21.006;2022-07-29T08:15:46;23.30;99.90
16437;DHT22;8328;52.206;21.006;2022-07-29T08:18:12;23.40;99.90
16437;DHT22;8328;52.206;21.006;2022-07-29T08:20:39;23.40;99.90
16437;DHT22;8328;52.206;21.006;2022-07-29T08:23:06;23.50;99.90
16437;DHT22;8328;52.206;21.006;2022-07-29T08:25:35;23.40;99.90
16437;DHT22;8328;52.206;21.006;2022-07-29T08:28:02;23.40;99.90
16437;DHT22;8328;52.206;21.006;2022-07-29T08:30:27;23.50;99.90
16437;DHT22;8328;52.206;21.006;2022-07-29T08:32:54;23.70;99.90
16437;DHT22;8328;52.206;21.006;2022-07-29T08:35:21;23.70;99.90
16437;DHT22;8328;52.206;21.006;2022-07-29T08:37:47;23.40;99.90
16437;DHT22;8328;52.206;21.006;2022-07-29T08:40:13;23.70;99.90
16437;DHT22;8328;52.206;21.006;2022-07-29T08:42:42;24.20;99.90
16437;DHT22;8328;52.206;21.006;2022-07-29T08:45:08;24.70;99.90
16437;DHT22;8328;52.206;21.006;2022-07-29T08:47:35;24.80;99.90
16437;DHT22;8328;52.206;21.006;2022-07-29T08:50:06;25.00;99.90
16437;DHT22;8328;52.206;21.006;2022-07-29T08:52:36;25.40;99.90
16437;DHT22;8328;52.206;21.006;2022-07-29T08:55:05;25.50;99.90
16437;DHT22;8328;52.206;21.006;2022-07-29T08:57:31;25.50;99.90
16437;DHT22;8328;52.206;21.006;2022-07-29T09:00:06;25.80;99.90
16437;DHT22;8328;52.206;21.006;2022-07-29T09:02:36;26.30;99.90
16437;DHT22;8328;52.206;21.006;2022-07-29T09:05:04;26.50;98.90
16437;DHT22;8328;52.206;21.006;2022-07-29T09:07:30;26.60;97.20
16437;DHT22;8328;52.206;21.006;2022-07-29T09:09:56;26.30;96.80
16437;DHT22;8328;52.206;21.006;2022-07-29T09:12:22;26.40;95.90
16437;DHT22;8328;52.206;21.006;2022-07-29T09:14:50;26.70;94.90
16437;DHT22;8328;52.206;21.006;2022-07-29T09:17:17;27.20;93.90
16437;DHT22;8328;52.206;21.006;2022-07-29T09:19:43;27.40;92.10
16437;DHT22;8328;52.206;21.006;2022-07-29T09:22:09;27.90;91.10
16437;DHT22;8328;52.206;21.006;2022-07-29T09:24:44;28.20;90.20
16437;DHT22;8328;52.206;21.006;2022-07-29T09:29:44;27.70;88.30
16437;DHT22;8328;52.206;21.006;2022-07-29T09:32:10;27.40;86.80
16437;DHT22;8328;52.206;21.006;2022-07-29T09:34:38;27.00;85.90
16437;DHT22;8328;52.206;21.006;2022-07-29T09:37:04;26.90;86.30
16437;DHT22;8328;52.206;21.006;2022-07-29T09:39:37;27.10;85.60
16437;DHT22;8328;52.206;21.006;2022-07-29T09:42:05;27.70;83.80
16437;DHT22;8328;52.206;21.006;2022-07-29T09:44:51;28.30;80.80
16437;DHT22;8328;52.206;21.006;2022-07-29T09:47:19;28.60;80.00
16437;DHT22;8328;52.206;21.006;2022-07-29T09:52:17;28.10;77.90
16437;DHT22;8328;52.206;21.006;2022-07-29T09:54:43;28.10;77.10
16437;DHT22;8328;52.206;21.006;2022-07-29T09:57:27;27.80;76.40
16437;DHT22;8328;52.206;21.006;2022-07-29T09:59:59;27.50;75.50
16437;DHT22;8328;52.206;21.006;2022-07-29T10:02:32;27.40;76.00
16437;DHT22;8328;52.206;21.006;2022-07-29T10:04:59;27.50;75.40
16437;DHT22;8328;52.206;21.006;2022-07-29T10:07:25;27.80;74.70
16437;DHT22;8328;52.206;21.006;2022-07-29T10:09:56;28.20;72.60
16437;DHT22;8328;52.206;21.006;2022-07-29T10:12:24;28.30;70.90
16437;DHT22;8328;52.206;21.006;2022-07-29T10:14:50;28.60;69.20
16437;DHT22;8328;52.206;21.006;2022-07-29T10:17:17;28.60;68.60
16437;DHT22;8328;52.206;21.006;2022-07-29T10:19:44;28.60;67.10
16437;DHT22;8328;52.206;21.006;2022-07-29T10:22:10;28.80;65.90
16437;DHT22;8328;52.206;21.006;2022-07-29T10:24:38;29.00;64.50
16437;DHT22;8328;52.206;21.006;2022-07-29T10:27:06;29.40;63.20
16437;DHT22;8328;52.206;21.006;2022-07-29T10:29:32;29.60;61.60
16437;DHT22;8328;52.206;21.006;2022-07-29T10:38:15;30.60;58.20
16437;DHT22;8328;52.206;21.006;2022-07-29T10:43:57;30.90;53.90
16437;DHT22;8328;52.206;21.006;2022-07-29T10:46:24;30.60;53.80
16437;DHT22;8328;52.206;21.006;2022-07-29T10:49:13;30.50;53.70
16437;DHT22;8328;52.206;21.006;2022-07-29T10:52:06;30.70;53.80
16437;DHT22;8328;52.206;21.006;2022-07-29T10:57:21;30.90;51.70
16437;DHT22;8328;52.206;21.006;2022-07-29T11:05:12;30.20;51.20
16437;DHT22;8328;52.206;21.006;2022-07-29T11:10:25;29.80;51.00
16437;DHT22;8328;52.206;21.006;2022-07-29T11:12:51;30.00;50.80
16437;DHT22;8328;52.206;21.006;2022-07-29T11:15:19;30.80;50.20
16437;DHT22;8328;52.206;21.006;2022-07-29T11:18:06;31.10;48.90
16437;DHT22;8328;52.206;21.006;2022-07-29T11:20:46;31.10;48.20
16437;DHT22;8328;52.206;21.006;2022-07-29T11:23:32;31.10;48.00
16437;DHT22;8328;52.206;21.006;2022-07-29T11:26:16;31.00;48.10
16437;DHT22;8328;52.206;21.006;2022-07-29T11:29:03;30.80;47.70
16437;DHT22;8328;52.206;21.006;2022-07-29T11:31:37;30.70;47.00
16437;DHT22;8328;52.206;21.006;2022-07-29T11:50:04;32.80;42.90
16437;DHT22;8328;52.206;21.006;2022-07-29T11:55:04;34.20;39.60
16437;DHT22;8328;52.206;21.006;2022-07-29T11:57:33;34.90;37.10
16437;DHT22;8328;52.206;21.006;2022-07-29T12:00:00;35.50;34.20
16437;DHT22;8328;52.206;21.006;2022-07-29T12:02:38;35.60;32.30
16437;DHT22;8328;52.206;21.006;2022-07-29T12:05:05;35.30;32.10
16437;DHT22;8328;52.206;21.006;2022-07-29T12:07:32;35.10;31.60
16437;DHT22;8328;52.206;21.006;2022-07-29T12:09:58;35.60;32.10
16437;DHT22;8328;52.206;21.006;2022-07-29T12:12:25;35.80;31.60
16437;DHT22;8328;52.206;21.006;2022-07-29T12:14:51;35.40;31.50
16437;DHT22;8328;52.206;21.006;2022-07-29T12:17:31;35.60;31.70
16437;DHT22;8328;52.206;21.006;2022-07-29T12:20:00;36.30;30.50
16437;DHT22;8328;52.206;21.006;2022-07-29T12:22:27;36.60;29.40
16437;DHT22;8328;52.206;21.006;2022-07-29T12:24:54;36.70;29.10
16437;DHT22;8328;52.206;21.006;2022-07-29T12:27:20;35.70;28.90
16437;DHT22;8328;52.206;21.006;2022-07-29T12:30:01;35.20;30.00
16437;DHT22;8328;52.206;21.006;2022-07-29T12:35:18;34.90;29.90
16437;DHT22;8328;52.206;21.006;2022-07-29T12:37:46;34.30;30.60
16437;DHT22;8328;52.206;21.006;2022-07-29T12:40:18;33.60;31.20
16437;DHT22;8328;52.206;21.006;2022-07-29T12:43:05;32.70;32.30
16437;DHT22;8328;52.206;21.006;2022-07-29T12:45:32;31.90;33.40
16437;DHT22;8328;52.206;21.006;2022-07-29T12:47:59;31.40;34.80
16437;DHT22;8328;52.206;21.006;2022-07-29T12:50:24;31.20;35.50
16437;DHT22;8328;52.206;21.006;2022-07-29T12:52:51;31.10;35.80
16437;DHT22;8328;52.206;21.006;2022-07-29T12:55:40;31.50;35.90
16437;DHT22;8328;52.206;21.006;2022-07-29T12:58:06;32.40;35.00
16437;DHT22;8328;52.206;21.006;2022-07-29T13:00:33;32.80;34.90
16437;DHT22;8328;52.206;21.006;2022-07-29T13:02:59;34.60;32.90
16437;DHT22;8328;52.206;21.006;2022-07-29T13:05:46;36.60;30.00
16437;DHT22;8328;52.206;21.006;2022-07-29T13:08:14;36.30;28.70
16437;DHT22;8328;52.206;21.006;2022-07-29T13:10:40;35.30;29.30
16437;DHT22;8328;52.206;21.006;2022-07-29T13:13:10;35.30;29.50
16437;DHT22;8328;52.206;21.006;2022-07-29T13:15:38;36.20;29.60
16437;DHT22;8328;52.206;21.006;2022-07-29T13:18:04;38.80;27.60
16437;DHT22;8328;52.206;21.006;2022-07-29T13:20:31;39.20;25.40
16437;DHT22;8328;52.206;21.006;2022-07-29T13:22:59;42.50;22.90
16437;DHT22;8328;52.206;21.006;2022-07-29T13:25:30;44.40;20.70
16437;DHT22;8328;52.206;21.006;2022-07-29T13:27:58;42.00;19.90
16437;DHT22;8328;52.206;21.006;2022-07-29T13:30:24;39.20;21.60
16437;DHT22;8328;52.206;21.006;2022-07-29T13:32:51;36.90;23.20
16437;DHT22;8328;52.206;21.006;2022-07-29T13:35:18;35.60;25.10
16437;DHT22;8328;52.206;21.006;2022-07-29T13:37:44;34.60;26.30
16437;DHT22;8328;52.206;21.006;2022-07-29T13:40:11;33.70;27.00
16437;DHT22;8328;52.206;21.006;2022-07-29T13:42:37;33.00;28.00
16437;DHT22;8328;52.206;21.006;2022-07-29T13:45:03;34.50;28.00
16437;DHT22;8328;52.206;21.006;2022-07-29T13:47:32;39.10;24.60
16437;DHT22;8328;52.206;21.006;2022-07-29T13:50:05;40.80;21.50
16437;DHT22;8328;52.206;21.006;2022-07-29T13:52:37;43.30;20.00
16437;DHT22;8328;52.206;21.006;2022-07-29T13:55:04;46.40;17.20
16437;DHT22;8328;52.206;21.006;2022-07-29T13:57:30;48.20;15.00
16437;DHT22;8328;52.206;21.006;2022-07-29T13:59:56;44.90;15.20
16437;DHT22;8328;52.206;21.006;2022-07-29T14:02:22;41.60;16.70
16437;DHT22;8328;52.206;21.006;2022-07-29T14:04:48;40.50;18.20
16437;DHT22;8328;52.206;21.006;2022-07-29T14:07:13;41.10;19.10
16437;DHT22;8328;52.206;21.006;2022-07-29T14:09:39;39.70;18.40
16437;DHT22;8328;52.206;21.006;2022-07-29T14:12:05;39.30;19.60
16437;DHT22;8328;52.206;21.006;2022-07-29T14:14:31;40.80;18.30
16437;DHT22;8328;52.206;21.006;2022-07-29T14:16:58;39.40;18.50
16437;DHT22;8328;52.206;21.006;2022-07-29T14:19:24;37.70;19.90
16437;DHT22;8328;52.206;21.006;2022-07-29T14:21:50;38.70;19.80
16437;DHT22;8328;52.206;21.006;2022-07-29T14:24:16;39.20;19.20
16437;DHT22;8328;52.206;21.006;2022-07-29T14:26:41;39.20;19.00
16437;DHT22;8328;52.206;21.006;2022-07-29T14:29:07;39.30;18.80
16437;DHT22;8328;52.206;21.006;2022-07-29T14:31:33;36.00;18.60
16437;DHT22;8328;52.206;21.006;2022-07-29T14:33:59;35.80;20.90
16437;DHT22;8328;52.206;21.006;2022-07-29T14:36:25;35.50;21.50
16437;DHT22;8328;52.206;21.006;2022-07-29T14:38:52;35.80;21.90
16437;DHT22;8328;52.206;21.006;2022-07-29T14:41:18;35.80;21.70
16437;DHT22;8328;52.206;21.006;2022-07-29T14:43:45;35.20;22.10
16437;DHT22;8328;52.206;21.006;2022-07-29T14:46:11;35.00;22.30
16437;DHT22;8328;52.206;21.006;2022-07-29T14:48:37;35.00;22.70
16437;DHT22;8328;52.206;21.006;2022-07-29T14:51:03;35.20;22.50
16437;DHT22;8328;52.206;21.006;2022-07-29T14:53:29;35.80;22.10
16437;DHT22;8328;52.206;21.006;2022-07-29T14:55:55;35.40;22.00
16437;DHT22;8328;52.206;21.006;2022-07-29T14:58:21;34.40;22.80
16437;DHT22;8328;52.206;21.006;2022-07-29T15:00:48;33.70;23.50
16437;DHT22;8328;52.206;21.006;2022-07-29T15:03:14;33.00;24.10
16437;DHT22;8328;52.206;21.006;2022-07-29T15:05:40;32.60;24.70
16437;DHT22;8328;52.206;21.006;2022-07-29T15:08:05;32.40;25.10
16437;DHT22;8328;52.206;21.006;2022-07-29T15:10:33;32.00;25.50
16437;DHT22;8328;52.206;21.006;2022-07-29T15:12:59;31.10;26.40
16437;DHT22;8328;52.206;21.006;2022-07-29T15:15:25;30.30;27.20
16437;DHT22;8328;52.206;21.006;2022-07-29T15:17:51;29.50;28.40
16437;DHT22;8328;52.206;21.006;2022-07-29T15:20:17;28.90;29.20
16437;DHT22;8328;52.206;21.006;2022-07-29T15:22:43;28.40;30.10
16437;DHT22;8328;52.206;21.006;2022-07-29T15:25:09;27.90;30.90
16437;DHT22;8328;52.206;21.006;2022-07-29T15:27:35;27.60;31.80
16437;DHT22;8328;52.206;21.006;2022-07-29T15:30:01;27.20;32.10
16437;DHT22;8328;52.206;21.006;2022-07-29T15:32:27;27.10;32.80
16437;DHT22;8328;52.206;21.006;2022-07-29T15:34:53;26.90;33.30
16437;DHT22;8328;52.206;21.006;2022-07-29T15:37:19;26.70;33.80
16437;DHT22;8328;52.206;21.006;2022-07-29T15:39:45;26.40;34.50
16437;DHT22;8328;52.206;21.006;2022-07-29T15:42:11;26.20;34.80
16437;DHT22;8328;52.206;21.006;2022-07-29T15:44:36;26.10;35.30
16437;DHT22;8328;52.206;21.006;2022-07-29T15:47:02;26.00;35.60
16437;DHT22;8328;52.206;21.006;2022-07-29T15:49:39;25.90;36.10
16437;DHT22;8328;52.206;21.006;2022-07-29T15:52:07;25.80;36.30
16437;DHT22;8328;52.206;21.006;2022-07-29T15:54:36;25.70;36.50
16437;DHT22;8328;52.206;21.006;2022-07-29T15:57:03;25.60;36.90
16437;DHT22;8328;52.206;21.006;2022-07-29T15:59:30;25.60;36.90
16437;DHT22;8328;52.206;21.006;2022-07-29T16:01:56;25.80;37.00
16437;DHT22;8328;52.206;21.006;2022-07-29T16:04:21;26.00;36.80
16437;DHT22;8328;52.206;21.006;2022-07-29T16:06:48;25.90;36.80
16437;DHT22;8328;52.206;21.006;2022-07-29T16:09:15;26.00;37.00
16437;DHT22;8328;52.206;21.006;2022-07-29T16:11:42;25.90;37.10
16437;DHT22;8328;52.206;21.006;2022-07-29T16:14:08;25.90;37.60
16437;DHT22;8328;52.206;21.006;2022-07-29T16:16:35;25.90;37.40
16437;DHT22;8328;52.206;21.006;2022-07-29T16:19:02;23.50;35.40
16437;DHT22;8328;52.206;21.006;2022-07-29T16:21:28;26.20;37.00
16437;DHT22;8328;52.206;21.006;2022-07-29T16:23:57;26.50;36.60
16437;DHT22;8328;52.206;21.006;2022-07-29T16:26:23;26.60;36.20
16437;DHT22;8328;52.206;21.006;2022-07-29T16:28:49;26.60;35.90
16437;DHT22;8328;52.206;21.006;2022-07-29T16:31:14;26.60;35.90
16437;DHT22;8328;52.206;21.006;2022-07-29T16:33:40;26.60;35.90
16437;DHT22;8328;52.206;21.006;2022-07-29T16:36:06;26.50;35.80